Terminal Aerodrome Forecast
Issued by NWS Louisville, KY

Home | Current Version | Previous Version | Text Only | Print | Product List | Glossary On
Versions: 1 2 3 4 5 6 7 8 9 10 11 12 13 14 15 16 17 18 19 20 21 22 23 24 25 26 27 28
000
FTUS43 KLMK 151729
TAFSDF
TAF
KSDF 151729Z 1518/1624 05005KT 4SM -SHRA BR FEW006 BKN012
      TEMPO 1518/1522 2SM -SHRA BR OVC006
     FM160100 06003KT 2SM -DZ BR OVC004
     FM161500 08002KT 4SM BR OVC005
     FM162000 14006KT P6SM BKN015=

USA.gov is the U.S. government's official web portal to all federal, state and local government web resources and services.